Airfield :
LOGIN :

Register | Disclaimer

   EN    FR    IT 

 










Legend :    VFR   Marginal VFR   IFR   Intensive IFR   Very Intensive IFR
Visi :
Ceiling :
>= 8 km
>= 3000ft
5 to 8 km
1000 to 3000 ft
1500m to 5 km
500 to 1000 ft
800 to 1500m
200 to 500 ft
< 800m
< 200 ft
Symbols :   Thunderstorms  Fog  Heavy snow  Heavy precipitations  Wind > 20 kt
SIGMETs :     Misc.  Thunderstorms  Icing  Turbulence  Mountain Waves  Volcanic Ashes







- Airport Elevation : 17 ft
- IATA code : GRS


LIRS - Grosseto

CURRENT METAR :
  • 202255Z 26002KT 9999 FEW015 SCT018 BKN030 12/09 Q1008

EXPIRED METARs :
  • 202155Z 03005KT 9999 SCT018 BKN030 11/09 Q1008 RMK BKN VIS MIN 9999 WIND THR03 03006 KT WIND THR21 04005KT BLU
  • 202055Z 33002KT 9999 SCT018 BKN030 12/10 Q1007 RMK OVC VIS MIN 9999 WIND THR03 33003KT WIND THR21 36004KT BLU

TAF TAF LIRS
Valid from the 20 at 21:00 until the 21 at 06:00 UTC


202000Z 2021/2106 02008KT 9999 FEW015 SCT030
No reported NOTAMs for that airfield.
1 SIGMET reported for the Roma FIR (LIRR) :
 
Severe turbulence
LIRR SIGMET 22 VALID 202130/202300 LIIB
LIRR ROMA FIR SEV TURB FCST E OF LINE N4125 E01422 - N3626 E01454 FL240/360 MOV E WKN=



MET'MAP, your aeronautical weather chart ! - Copyright ORBIFLY December 2007 - Disclaimer

ORBIFLY MET'MAP TEAM :

Programming & Development : Alexandra Zaïnal
Concept & Development : Baudouin d'Aumeries
Co-Development & Prog : Marc-Olivier Méhu
Technical & hardware support : Manuel Goepfert

Contact : metmap@orbifly.com




SOURCES & CREDITS :

   NOAA